Time;durP1;ratioP1;P1;durP2;ratioP2;P2;SDS_P1;SDS_P2;PMS_P1;PMS_P2;Temp;Humidity;BMP_temperature;BMP_pressure;BME280_temperature;BME280_humidity;BME280_pressure;Samples;Min_cycle;Max_cycle;Signal;HPM_P1;HPM_P2
2022/01/15 00:00:34;;;;;;;52.20;13.88;;;6.20;99.90;;;;;;5037141;28;20200;-94
2022/01/15 00:03:00;;;;;;;69.07;14.32;;;6.30;99.90;;;;;;5020254;28;20099;-93
2022/01/15 00:05:25;;;;;;;55.20;14.25;;;6.20;99.90;;;;;;5020171;28;20068;-94
2022/01/15 00:07:51;;;;;;;58.63;14.35;;;6.20;99.90;;;;;;5020571;28;20049;-93
2022/01/15 00:10:26;;;;;;;62.67;14.20;;;6.20;99.90;;;;;;5020616;28;20113;-94
2022/01/15 00:16:44;;;;;;;66.55;14.52;;;6.20;99.90;;;;;;5037427;28;20095;-94
2022/01/15 00:19:13;;;;;;;76.10;16.13;;;6.10;99.90;;;;;;5020144;28;20052;-93
2022/01/15 00:21:40;;;;;;;104.53;16.52;;;6.20;99.90;;;;;;5020059;28;20041;-94
2022/01/15 00:24:09;;;;;;;94.25;17.05;;;6.10;99.90;;;;;;5020368;28;20064;-94
2022/01/15 00:26:37;;;;;;;65.28;15.35;;;6.10;99.90;;;;;;5020387;28;20131;-94
2022/01/15 00:32:45;;;;;;;114.67;15.63;;;6.10;99.90;;;;;;5037057;28;20394;-93
2022/01/15 00:35:13;;;;;;;109.38;16.60;;;6.20;99.90;;;;;;5020694;28;20045;-93
2022/01/15 00:37:43;;;;;;;113.28;18.13;;;6.10;99.90;;;;;;5019980;28;20075;-94
2022/01/15 00:40:12;;;;;;;125.00;17.27;;;6.10;99.90;;;;;;5019596;28;20049;-93
2022/01/15 00:42:39;;;;;;;87.63;16.30;;;6.10;99.90;;;;;;5019893;28;20059;-94
2022/01/15 00:45:13;;;;;;;63.85;14.93;;;6.10;99.90;;;;;;5036188;28;20084;-94
2022/01/15 00:47:40;;;;;;;70.32;14.88;;;6.10;99.90;;;;;;5019633;28;20063;-93
2022/01/15 00:50:07;;;;;;;70.88;14.15;;;6.10;99.90;;;;;;5035930;28;20136;-95
2022/01/15 00:52:33;;;;;;;94.22;16.35;;;6.10;99.90;;;;;;5019142;28;20061;-95
2022/01/15 00:55:00;;;;;;;126.65;16.00;;;6.40;99.90;;;;;;5003119;28;20049;-94
2022/01/15 00:57:26;;;;;;;115.40;15.52;;;6.20;99.90;;;;;;5035391;28;20140;-93
2022/01/15 00:59:51;;;;;;;95.10;15.20;;;6.10;99.90;;;;;;5019268;28;20471;-92
2022/01/15 01:02:17;;;;;;;62.97;14.10;;;5.90;99.90;;;;;;5018902;28;20057;-94
2022/01/15 01:04:43;;;;;;;88.78;15.52;;;6.10;99.90;;;;;;5019457;28;20471;-92
2022/01/15 01:07:10;;;;;;;65.65;15.55;;;6.10;99.90;;;;;;5018933;28;20050;-93
2022/01/15 01:09:57;;;;;;;69.35;14.70;;;6.10;99.90;;;;;;5019441;28;20049;-94
2022/01/15 01:12:35;;;;;;;66.65;14.68;;;6.10;99.90;;;;;;5035443;28;20407;-94
2022/01/15 01:21:10;;;;;;;94.15;15.45;;;6.30;99.90;;;;;;5035231;28;20073;-93
2022/01/15 01:23:36;;;;;;;77.43;14.85;;;6.20;99.90;;;;;;5002483;28;20059;-93
2022/01/15 01:26:13;;;;;;;83.70;15.23;;;6.10;99.90;;;;;;5019060;28;20057;-93
2022/01/15 01:29:16;;;;;;;105.95;16.05;;;6.40;99.90;;;;;;5019058;28;20053;-94
2022/01/15 01:34:29;;;;;;;101.78;15.88;;;6.10;99.90;;;;;;5035183;28;20110;-92
2022/01/15 01:42:29;;;;;;;109.65;16.38;;;6.20;99.90;;;;;;5035123;28;20499;-93
2022/01/15 01:45:09;;;;;;;79.63;15.18;;;6.20;99.90;;;;;;5018643;28;20168;-94
2022/01/15 01:47:39;;;;;;;68.53;15.55;;;6.10;99.90;;;;;;5034697;28;20049;-93
2022/01/15 01:50:13;;;;;;;80.97;14.55;;;6.00;99.90;;;;;;5018158;28;20451;-95
2022/01/15 01:52:40;;;;;;;71.45;15.50;;;6.20;99.90;;;;;;5018141;28;20159;-94
2022/01/15 01:55:06;;;;;;;66.20;14.98;;;6.10;99.90;;;;;;5018681;28;20049;-93
2022/01/15 01:57:33;;;;;;;60.78;14.50;;;6.20;99.90;;;;;;5017849;28;20433;-93
2022/01/15 02:03:40;;;;;;;59.47;13.23;;;6.10;99.90;;;;;;5035774;28;20044;-93
2022/01/15 02:06:06;;;;;;;71.07;14.10;;;6.10;99.90;;;;;;5018461;28;20487;-94
2022/01/15 02:08:34;;;;;;;97.93;16.00;;;6.10;99.90;;;;;;5018585;28;20133;-93
2022/01/15 02:11:03;;;;;;;52.03;13.15;;;6.30;99.90;;;;;;5018245;28;20115;-94
2022/01/15 02:13:30;;;;;;;68.28;14.80;;;6.10;99.90;;;;;;5001857;28;20525;-94
2022/01/15 02:15:57;;;;;;;61.90;14.13;;;6.10;99.90;;;;;;5018227;28;20056;-92
2022/01/15 02:18:24;;;;;;;64.03;13.77;;;6.10;99.90;;;;;;5017849;28;20426;-94
2022/01/15 02:23:35;;;;;;;70.47;14.27;;;6.10;99.90;;;;;;5017857;28;20455;-93
2022/01/15 02:26:05;;;;;;;53.78;13.30;;;6.20;99.90;;;;;;5018071;28;20060;-94
2022/01/15 02:32:11;;;;;;;51.60;12.93;;;6.00;99.90;;;;;;5035018;28;20044;-93
2022/01/15 02:34:37;;;;;;;42.42;11.95;;;6.10;99.90;;;;;;5034350;28;20151;-93
2022/01/15 02:37:03;;;;;;;42.67;12.55;;;6.10;99.90;;;;;;5018015;28;20402;-94
2022/01/15 02:39:28;;;;;;;40.83;12.00;;;6.10;99.90;;;;;;5017390;28;20114;-94
2022/01/15 02:41:58;;;;;;;67.75;13.85;;;6.00;99.90;;;;;;5017545;28;20053;-94
2022/01/15 02:44:24;;;;;;;45.15;11.90;;;6.00;99.90;;;;;;5017587;28;20050;-94
2022/01/15 02:49:17;;;;;;;68.53;12.45;;;6.00;99.90;;;;;;5017134;28;20053;-94
2022/01/15 02:51:46;;;;;;;59.80;12.73;;;6.30;99.90;;;;;;5016799;28;20064;-93
2022/01/15 02:54:11;;;;;;;48.08;11.75;;;6.10;99.90;;;;;;5016714;28;20058;-94
2022/01/15 02:56:43;;;;;;;41.05;11.85;;;6.00;99.90;;;;;;5016961;28;20048;-94
2022/01/15 02:59:17;;;;;;;47.17;12.20;;;6.10;99.90;;;;;;5017145;28;20076;-94
2022/01/15 03:01:43;;;;;;;48.35;11.60;;;5.80;99.90;;;;;;5033350;28;20053;-94
2022/01/15 03:04:09;;;;;;;41.83;11.68;;;6.00;99.90;;;;;;5017028;28;20380;-94
2022/01/15 03:06:35;;;;;;;50.22;12.18;;;6.20;99.90;;;;;;5033254;28;20056;-93
2022/01/15 03:09:01;;;;;;;39.13;10.82;;;6.20;99.90;;;;;;5016267;28;20510;-93
2022/01/15 03:11:28;;;;;;;50.90;11.85;;;6.00;99.90;;;;;;5000939;28;20399;-94
2022/01/15 03:13:57;;;;;;;38.40;10.90;;;6.00;99.90;;;;;;5033754;28;20061;-94
2022/01/15 03:16:23;;;;;;;36.13;10.65;;;6.00;99.90;;;;;;5000341;28;20060;-94
2022/01/15 03:18:49;;;;;;;48.40;11.32;;;6.00;99.90;;;;;;5000334;28;20053;-94
2022/01/15 03:21:15;;;;;;;43.55;10.30;;;6.00;99.90;;;;;;5016937;28;20090;-93
2022/01/15 03:23:42;;;;;;;32.15;9.27;;;6.00;99.90;;;;;;5016940;28;20110;-94
2022/01/15 03:26:08;;;;;;;40.90;10.93;;;6.20;99.90;;;;;;5017048;28;20111;-93
2022/01/15 03:28:35;;;;;;;34.13;9.52;;;6.00;99.90;;;;;;5017011;28;20068;-94
2022/01/15 03:31:01;;;;;;;34.40;9.68;;;5.90;99.90;;;;;;5016668;28;20053;-94
2022/01/15 03:33:27;;;;;;;22.35;8.15;;;6.00;99.90;;;;;;5000383;28;20418;-94
2022/01/15 03:35:52;;;;;;;25.10;7.85;;;5.80;99.90;;;;;;5016890;28;20050;-94
2022/01/15 03:38:18;;;;;;;24.60;8.07;;;5.90;99.90;;;;;;5017169;28;20049;-95
2022/01/15 03:40:47;;;;;;;30.27;8.48;;;5.80;99.90;;;;;;5016848;28;20141;-94
2022/01/15 03:43:13;;;;;;;20.75;7.75;;;5.90;99.90;;;;;;5016566;28;20112;-94
2022/01/15 03:45:39;;;;;;;22.10;7.20;;;5.90;99.90;;;;;;5017226;28;20054;-94
2022/01/15 03:48:07;;;;;;;21.02;7.25;;;5.90;99.90;;;;;;5016656;28;20045;-94
2022/01/15 03:50:33;;;;;;;17.45;6.68;;;5.90;99.90;;;;;;5016772;28;20558;-94
2022/01/15 03:52:59;;;;;;;16.95;6.03;;;5.90;99.90;;;;;;5016778;28;20092;-94
2022/01/15 03:55:25;;;;;;;19.02;6.68;;;5.90;99.90;;;;;;5000596;28;20053;-94
2022/01/15 03:57:52;;;;;;;19.33;7.00;;;5.90;99.90;;;;;;5016814;28;20057;-94
2022/01/15 04:03:58;;;;;;;9.77;4.57;;;5.90;99.90;;;;;;5033814;28;20048;-93
2022/01/15 04:06:24;;;;;;;10.10;4.47;;;5.80;99.90;;;;;;5016732;28;20049;-94
2022/01/15 04:08:50;;;;;;;11.98;4.47;;;5.70;99.90;;;;;;5016785;28;20140;-94
2022/01/15 04:11:15;;;;;;;9.82;4.57;;;5.80;99.90;;;;;;5000741;28;20049;-94
2022/01/15 04:14:18;;;;;;;11.95;5.00;;;6.00;99.90;;;;;;5016812;28;20053;-94
2022/01/15 04:16:44;;;;;;;14.18;5.18;;;5.80;99.90;;;;;;5016618;28;20398;-94
2022/01/15 04:19:10;;;;;;;12.50;5.28;;;5.80;99.90;;;;;;5016382;28;20061;-94
2022/01/15 04:21:36;;;;;;;20.42;6.40;;;5.80;99.90;;;;;;5003649;28;20061;-94
2022/01/15 04:24:03;;;;;;;15.02;5.82;;;6.00;99.90;;;;;;5019990;28;20498;-93
2022/01/15 04:26:29;;;;;;;17.25;5.90;;;5.80;99.90;;;;;;5036539;28;20172;-94
2022/01/15 04:29:02;;;;;;;14.38;5.57;;;5.80;99.90;;;;;;5019891;28;20402;-94
2022/01/15 04:31:34;;;;;;;10.57;4.80;;;5.80;99.90;;;;;;5036778;28;20115;-94
2022/01/15 04:34:00;;;;;;;14.32;4.97;;;5.80;99.90;;;;;;5019659;28;20057;-95
2022/01/15 04:36:26;;;;;;;12.90;5.20;;;6.00;99.90;;;;;;5019885;28;20060;-94
2022/01/15 04:38:52;;;;;;;13.77;5.18;;;6.00;99.90;;;;;;5019027;28;20450;-94
2022/01/15 04:41:17;;;;;;;12.27;5.20;;;5.60;99.90;;;;;;5036209;28;20057;-94
2022/01/15 04:43:43;;;;;;;13.73;5.45;;;5.80;99.90;;;;;;5019311;28;20049;-94
2022/01/15 04:46:09;;;;;;;13.25;5.00;;;5.70;99.90;;;;;;5019349;28;20085;-94
2022/01/15 04:48:34;;;;;;;12.25;5.43;;;5.90;99.90;;;;;;5035826;28;20410;-95
2022/01/15 04:51:00;;;;;;;18.27;5.43;;;5.80;99.90;;;;;;5035586;28;20095;-96
2022/01/15 04:53:26;;;;;;;12.27;4.50;;;5.80;99.90;;;;;;5036083;28;20053;-93
2022/01/15 04:55:52;;;;;;;7.53;4.18;;;5.70;99.90;;;;;;5019577;28;20115;-94
2022/01/15 04:58:17;;;;;;;12.13;4.30;;;5.70;99.90;;;;;;5019779;28;20064;-94
2022/01/15 05:00:43;;;;;;;7.88;4.05;;;5.60;99.90;;;;;;5019684;28;20403;-94
2022/01/15 05:03:09;;;;;;;11.93;4.45;;;5.70;99.90;;;;;;5019166;28;20492;-94
2022/01/15 05:05:35;;;;;;;16.10;4.80;;;5.70;99.90;;;;;;5019656;28;20111;-94
2022/01/15 05:08:02;;;;;;;10.73;4.82;;;5.60;99.90;;;;;;5019044;28;20057;-94
2022/01/15 05:10:28;;;;;;;9.07;4.07;;;5.60;99.90;;;;;;5002991;28;20515;-94
2022/01/15 05:13:00;;;;;;;22.00;5.18;;;5.70;99.90;;;;;;5019072;28;20053;-94
2022/01/15 05:15:25;;;;;;;12.30;4.20;;;5.60;99.90;;;;;;5003036;28;20073;-94
2022/01/15 05:17:51;;;;;;;12.70;4.22;;;5.70;99.90;;;;;;5019484;28;20053;-95
2022/01/15 05:20:19;;;;;;;11.07;4.88;;;5.80;99.90;;;;;;5019086;28;20092;-94
2022/01/15 05:22:46;;;;;;;7.40;3.95;;;5.50;99.90;;;;;;5018887;28;20056;-94
2022/01/15 05:25:16;;;;;;;16.08;5.68;;;5.60;99.90;;;;;;5019321;28;20485;-94
2022/01/15 05:27:43;;;;;;;71.00;7.50;;;5.60;99.90;;;;;;5019343;28;20057;-95
2022/01/15 05:30:10;;;;;;;12.32;5.05;;;5.50;99.90;;;;;;5018847;28;20052;-94
2022/01/15 05:32:35;;;;;;;12.82;5.72;;;5.50;99.90;;;;;;5002573;28;20177;-94
2022/01/15 05:35:01;;;;;;;8.60;4.93;;;5.50;99.90;;;;;;5019027;28;20057;-93
2022/01/15 05:37:27;;;;;;;11.15;5.70;;;5.50;99.90;;;;;;5018683;28;20088;-93
2022/01/15 05:39:54;;;;;;;14.02;5.65;;;5.70;99.90;;;;;;5018381;28;20136;-94
2022/01/15 05:42:19;;;;;;;9.05;5.40;;;5.50;99.90;;;;;;5002319;28;20122;-94
2022/01/15 05:44:45;;;;;;;14.45;6.65;;;5.50;99.90;;;;;;5035291;28;20502;-94
2022/01/15 05:47:11;;;;;;;17.15;6.03;;;5.80;99.90;;;;;;5018544;28;20097;-94
2022/01/15 05:49:38;;;;;;;23.88;6.15;;;5.70;99.90;;;;;;5018668;28;20091;-93
2022/01/15 05:52:04;;;;;;;14.45;5.82;;;5.50;99.90;;;;;;5018548;28;20050;-94
2022/01/15 05:54:30;;;;;;;16.77;6.75;;;5.50;99.90;;;;;;5018466;28;20058;-93
2022/01/15 05:56:58;;;;;;;16.08;6.45;;;5.80;99.90;;;;;;5018218;28;20518;-94
2022/01/15 05:59:25;;;;;;;15.00;5.78;;;5.50;99.90;;;;;;5018761;28;20053;-94
2022/01/15 06:01:50;;;;;;;14.75;5.90;;;5.50;99.90;;;;;;5002136;28;20057;-93
2022/01/15 06:04:19;;;;;;;13.07;6.15;;;5.50;99.90;;;;;;5018374;28;20068;-94
2022/01/15 06:06:45;;;;;;;11.88;5.28;;;5.20;99.90;;;;;;5017867;28;20107;-93
2022/01/15 06:09:14;;;;;;;10.35;4.78;;;5.60;99.90;;;;;;5018008;28;20442;-94
2022/01/15 06:11:41;;;;;;;10.50;4.88;;;5.40;99.90;;;;;;5018100;28;20133;-94
2022/01/15 06:14:07;;;;;;;9.85;5.07;;;5.60;99.90;;;;;;5018142;28;20111;-94
2022/01/15 06:16:32;;;;;;;9.07;4.65;;;5.40;99.90;;;;;;5017766;28;20053;-94
2022/01/15 06:18:58;;;;;;;10.75;5.40;;;5.80;99.90;;;;;;5018075;28;20049;-94
2022/01/15 06:21:24;;;;;;;11.38;5.03;;;5.40;99.90;;;;;;5018165;28;20502;-93
2022/01/15 06:23:50;;;;;;;11.15;4.88;;;5.40;99.90;;;;;;5018147;28;20119;-94
2022/01/15 06:26:16;;;;;;;12.55;5.28;;;5.30;99.90;;;;;;5018016;28;20510;-93
2022/01/15 06:28:42;;;;;;;10.18;4.70;;;5.60;99.90;;;;;;5034542;28;20124;-94
2022/01/15 06:31:08;;;;;;;10.68;4.78;;;5.40;99.90;;;;;;5017791;28;20486;-94
2022/01/15 06:33:34;;;;;;;11.35;4.95;;;5.30;99.90;;;;;;5033697;28;20060;-94
2022/01/15 06:36:00;;;;;;;9.73;4.72;;;5.30;99.90;;;;;;5033696;28;20095;-93
2022/01/15 06:38:27;;;;;;;10.10;4.95;;;5.30;99.90;;;;;;5017222;28;20093;-93
2022/01/15 06:40:52;;;;;;;12.57;5.95;;;5.30;99.90;;;;;;5017263;28;20219;-93
2022/01/15 06:43:18;;;;;;;10.07;5.22;;;5.30;99.90;;;;;;5016735;28;20132;-94
2022/01/15 06:45:44;;;;;;;13.57;5.25;;;5.30;99.90;;;;;;5017752;28;20534;-92
2022/01/15 06:48:10;;;;;;;14.05;5.47;;;5.30;99.90;;;;;;5017600;28;20475;-94
2022/01/15 06:50:37;;;;;;;13.45;5.90;;;5.50;99.90;;;;;;5001866;28;20060;-94
2022/01/15 06:53:03;;;;;;;13.60;5.57;;;5.40;99.90;;;;;;5017588;28;20052;-94
2022/01/15 06:55:30;;;;;;;13.73;6.10;;;5.20;99.90;;;;;;5034166;28;20555;-95
2022/01/15 06:57:58;;;;;;;11.38;4.97;;;5.20;99.90;;;;;;5017497;28;20092;-94
2022/01/15 07:00:25;;;;;;;10.68;5.18;;;5.20;99.90;;;;;;5017393;28;20502;-94
2022/01/15 07:02:51;;;;;;;12.75;6.05;;;5.30;99.90;;;;;;5016573;28;20140;-93
2022/01/15 07:05:19;;;;;;;12.80;5.85;;;5.20;99.90;;;;;;5017133;28;20092;-94
2022/01/15 07:07:46;;;;;;;13.13;6.13;;;5.00;99.90;;;;;;5000833;28;20061;-94
2022/01/15 07:10:14;;;;;;;13.85;5.35;;;5.40;99.90;;;;;;5017236;28;20402;-94
2022/01/15 07:12:40;;;;;;;10.30;4.85;;;5.60;99.90;;;;;;5017017;28;20080;-95
2022/01/15 07:18:49;;;;;;;11.50;5.78;;;5.20;99.90;;;;;;5034175;28;20044;-94
2022/01/15 07:21:15;;;;;;;12.60;5.93;;;5.10;99.90;;;;;;5017312;28;20096;-94
2022/01/15 07:23:43;;;;;;;14.15;6.30;;;5.10;99.90;;;;;;5016392;28;20084;-93
2022/01/15 07:26:11;;;;;;;15.43;6.60;;;5.20;99.90;;;;;;5017236;28;20478;-94
2022/01/15 07:29:16;;;;;;;12.13;6.30;;;5.00;99.90;;;;;;5016838;28;20061;-94
2022/01/15 07:31:44;;;;;;;10.52;5.85;;;5.10;99.90;;;;;;5016134;28;20053;-94
2022/01/15 07:34:10;;;;;;;10.25;5.82;;;5.10;99.90;;;;;;5017162;28;20061;-93
2022/01/15 07:36:37;;;;;;;12.85;5.57;;;5.10;99.90;;;;;;5017137;28;20180;-94
2022/01/15 07:39:05;;;;;;;11.93;5.45;;;5.20;99.90;;;;;;5016524;28;20068;-94
2022/01/15 07:41:31;;;;;;;12.77;5.88;;;5.20;99.90;;;;;;5016620;28;20111;-94
2022/01/15 07:43:57;;;;;;;14.30;5.93;;;5.00;99.90;;;;;;5016984;28;20601;-94
2022/01/15 07:46:23;;;;;;;12.85;6.38;;;5.10;99.90;;;;;;5017077;28;20088;-94
2022/01/15 07:48:57;;;;;;;16.30;6.90;;;5.10;99.90;;;;;;5016993;28;20121;-94
2022/01/15 07:51:23;;;;;;;17.42;7.40;;;5.30;99.90;;;;;;5017005;28;20053;-94
2022/01/15 07:53:51;;;;;;;16.63;7.63;;;5.10;99.90;;;;;;5016492;28;20049;-93
2022/01/15 07:56:17;;;;;;;17.33;7.45;;;5.10;99.90;;;;;;5019907;28;20057;-94
2022/01/15 07:58:46;;;;;;;18.90;7.45;;;5.00;99.90;;;;;;5020376;28;20060;-94
2022/01/15 08:01:12;;;;;;;20.65;8.50;;;5.10;99.90;;;;;;5020494;28;20160;-95
2022/01/15 08:03:38;;;;;;;22.27;9.80;;;5.10;99.90;;;;;;5020153;28;20046;-93
2022/01/15 08:06:03;;;;;;;21.77;9.98;;;5.20;99.90;;;;;;5020491;28;20056;-94
2022/01/15 08:08:33;;;;;;;22.05;9.43;;;5.10;99.90;;;;;;5020563;28;20060;-95
2022/01/15 08:10:59;;;;;;;17.13;8.73;;;5.10;99.90;;;;;;5020815;28;20057;-94
2022/01/15 08:13:26;;;;;;;22.35;10.05;;;5.10;99.90;;;;;;5020795;28;20056;-95
2022/01/15 08:15:53;;;;;;;26.85;10.43;;;5.00;99.90;;;;;;5020263;28;20445;-93
2022/01/15 08:18:21;;;;;;;23.33;10.57;;;5.20;99.90;;;;;;5020501;28;20126;-94
2022/01/15 08:20:48;;;;;;;19.40;9.30;;;5.00;99.90;;;;;;5020499;28;20089;-94
2022/01/15 08:23:14;;;;;;;21.05;9.70;;;5.10;99.90;;;;;;5020190;28;20060;-94
2022/01/15 08:25:42;;;;;;;19.13;9.07;;;5.00;99.90;;;;;;5020326;28;20055;-95
2022/01/15 08:28:08;;;;;;;21.75;9.40;;;5.20;99.90;;;;;;5019751;28;20053;-94
2022/01/15 08:30:34;;;;;;;21.50;9.23;;;5.00;99.90;;;;;;5019999;28;20501;-93
2022/01/15 08:33:00;;;;;;;19.48;8.57;;;5.20;99.90;;;;;;5020512;28;20123;-93
2022/01/15 08:35:26;;;;;;;17.17;9.27;;;4.90;99.90;;;;;;5020744;28;20431;-94
2022/01/15 08:37:53;;;;;;;18.45;8.73;;;4.90;99.90;;;;;;5020323;28;20552;-93
2022/01/15 08:40:21;;;;;;;21.20;9.60;;;4.90;99.90;;;;;;5005409;28;20143;-95
2022/01/15 08:42:48;;;;;;;21.25;10.18;;;4.90;99.90;;;;;;5019930;28;20053;-94
2022/01/15 08:45:15;;;;;;;23.08;11.07;;;4.80;99.90;;;;;;5004206;28;20061;-91
2022/01/15 08:47:42;;;;;;;22.20;10.50;;;4.80;99.90;;;;;;5003904;28;20057;-94
2022/01/15 08:50:10;;;;;;;22.45;10.88;;;4.80;99.90;;;;;;5002649;28;20057;-95
2022/01/15 08:52:37;;;;;;;23.27;11.25;;;4.80;99.90;;;;;;5003558;28;20402;-94
2022/01/15 08:55:04;;;;;;;24.25;10.75;;;4.90;99.90;;;;;;5003372;28;20139;-94
2022/01/15 08:57:30;;;;;;;25.80;12.60;;;4.90;99.90;;;;;;5003782;28;20115;-94
2022/01/15 08:59:55;;;;;;;29.17;12.65;;;4.80;99.90;;;;;;5003341;28;20049;-93
2022/01/15 09:02:21;;;;;;;26.67;12.05;;;4.80;99.90;;;;;;5002704;28;20045;-94
2022/01/15 09:04:50;;;;;;;26.80;12.63;;;4.80;99.90;;;;;;5003083;28;20049;-94
2022/01/15 09:07:16;;;;;;;31.83;13.07;;;4.90;99.90;;;;;;5002504;28;20096;-94
2022/01/15 09:09:41;;;;;;;33.42;13.98;;;4.80;99.90;;;;;;5002786;28;20115;-94
2022/01/15 09:12:08;;;;;;;32.45;14.07;;;5.00;99.90;;;;;;5003289;28;20414;-94
2022/01/15 09:14:33;;;;;;;30.02;13.13;;;4.90;99.90;;;;;;5003050;28;20049;-94
2022/01/15 09:16:59;;;;;;;35.35;14.35;;;4.90;99.90;;;;;;5002746;28;20056;-94
2022/01/15 09:19:28;;;;;;;31.38;13.48;;;4.90;99.90;;;;;;5002156;28;20502;-95
2022/01/15 09:21:54;;;;;;;34.67;13.30;;;4.90;99.90;;;;;;5002585;28;20049;-93
2022/01/15 09:24:19;;;;;;;30.48;13.07;;;4.90;99.90;;;;;;5003375;28;20402;-93
2022/01/15 09:27:02;;;;;;;34.15;13.63;;;4.90;99.90;;;;;;5003371;28;20050;-94
2022/01/15 09:33:10;;;;;;;23.57;10.93;;;5.00;99.90;;;;;;5036370;28;20042;-94
2022/01/15 09:35:37;;;;;;;22.23;10.57;;;5.00;99.90;;;;;;5003051;28;20107;-95
2022/01/15 09:38:03;;;;;;;26.77;11.80;;;5.00;99.90;;;;;;5002222;28;20474;-93
2022/01/15 09:40:29;;;;;;;24.27;11.07;;;5.00;99.90;;;;;;5002660;28;20061;-94
2022/01/15 09:42:55;;;;;;;26.33;11.68;;;5.00;99.90;;;;;;5002315;28;20046;-93
2022/01/15 09:45:23;;;;;;;25.48;12.05;;;5.00;99.90;;;;;;5002045;28;20055;-94
2022/01/15 09:48:04;;;;;;;20.50;8.95;;;5.00;99.90;;;;;;5001882;28;20136;-94
2022/01/15 09:50:36;;;;;;;18.48;9.40;;;5.00;99.90;;;;;;5018618;28;20091;-94
2022/01/15 09:53:02;;;;;;;20.63;9.43;;;5.00;99.90;;;;;;5002500;28;20380;-93
2022/01/15 09:55:28;;;;;;;18.83;9.15;;;5.10;99.90;;;;;;5018155;28;20053;-94
2022/01/15 09:57:59;;;;;;;16.52;8.48;;;5.10;99.90;;;;;;5002073;28;20061;-94
2022/01/15 10:00:27;;;;;;;15.95;8.57;;;5.00;99.90;;;;;;5001876;28;20419;-94
2022/01/15 10:02:54;;;;;;;17.85;9.40;;;5.00;99.90;;;;;;5002105;28;20053;-93
2022/01/15 10:05:20;;;;;;;19.52;9.40;;;5.00;99.90;;;;;;5001979;28;20053;-93
2022/01/15 10:08:00;;;;;;;19.65;10.48;;;4.90;99.90;;;;;;5017909;28;20407;-92
2022/01/15 10:10:28;;;;;;;19.48;10.25;;;5.30;99.90;;;;;;5001823;28;20061;-93
2022/01/15 10:12:54;;;;;;;22.67;10.63;;;5.00;99.90;;;;;;5002153;28;20061;-94
2022/01/15 10:15:20;;;;;;;24.23;11.38;;;5.00;99.90;;;;;;5001481;28;20046;-93
2022/01/15 10:17:46;;;;;;;23.95;11.75;;;5.00;99.90;;;;;;5001463;28;20057;-92
2022/01/15 10:20:25;;;;;;;23.02;12.50;;;4.90;99.90;;;;;;5001924;28;20053;-93
2022/01/15 10:22:52;;;;;;;23.70;12.13;;;4.90;99.90;;;;;;5001529;28;20049;-94
2022/01/15 10:25:21;;;;;;;28.40;13.30;;;4.90;99.90;;;;;;5001960;28;20486;-94
2022/01/15 10:27:52;;;;;;;26.98;13.43;;;4.90;99.90;;;;;;5002023;28;20053;-94
2022/01/15 10:30:20;;;;;;;25.02;13.43;;;5.00;99.90;;;;;;5001597;28;20123;-94
2022/01/15 10:32:59;;;;;;;27.27;13.55;;;5.00;99.90;;;;;;5001164;28;20057;-94
2022/01/15 10:35:34;;;;;;;29.17;14.68;;;5.00;99.90;;;;;;5001960;28;20079;-95
2022/01/15 10:38:05;;;;;;;25.25;13.60;;;5.40;99.90;;;;;;5001052;28;20060;-94
2022/01/15 10:40:41;;;;;;;;;;;4.90;99.90;;;;;;5001041;28;20053;-94
2022/01/15 10:43:08;;;;;;;23.08;12.63;;;5.00;99.90;;;;;;5000920;28;20329;-92
2022/01/15 10:45:35;;;;;;;24.58;13.82;;;4.80;99.90;;;;;;5001534;28;20402;-94
2022/01/15 10:48:04;;;;;;;28.45;13.35;;;5.30;99.90;;;;;;5000687;28;20049;-92
2022/01/15 10:50:35;;;;;;;24.70;12.60;;;5.00;99.90;;;;;;4973623;28;20061;-93
2022/01/15 10:53:07;;;;;;;27.55;13.15;;;5.20;99.90;;;;;;5014592;28;20419;-92
2022/01/15 10:55:36;;;;;;;25.77;13.10;;;5.10;99.90;;;;;;5000251;28;20486;-93
2022/01/15 10:58:05;;;;;;;29.95;14.80;;;5.10;99.90;;;;;;5000398;28;20113;-93
2022/01/15 11:00:40;;;;;;;27.50;14.90;;;5.00;99.90;;;;;;5000099;28;20388;-92
2022/01/15 11:03:25;;;;;;;28.58;15.15;;;5.00;99.90;;;;;;4999756;28;20069;-93
2022/01/15 11:05:52;;;;;;;33.92;15.60;;;5.00;99.90;;;;;;5016097;28;20385;-93
2022/01/15 11:08:18;;;;;;;26.58;15.27;;;5.00;99.90;;;;;;5016731;28;20041;-94
2022/01/15 11:10:47;;;;;;;29.70;14.55;;;5.30;99.90;;;;;;5016786;28;20056;-93
2022/01/15 11:13:15;;;;;;;26.63;14.57;;;4.90;99.90;;;;;;5033339;28;20053;-94
2022/01/15 11:16:19;;;;;;;24.77;14.13;;;5.10;99.90;;;;;;5016789;28;20061;-94
2022/01/15 11:18:49;;;;;;;27.48;14.48;;;5.10;99.90;;;;;;5014438;28;20483;-94
2022/01/15 11:21:18;;;;;;;25.45;13.88;;;5.00;99.90;;;;;;4997234;28;20046;-93
2022/01/15 11:23:45;;;;;;;30.02;14.85;;;5.30;99.90;;;;;;4996862;28;20072;-93
2022/01/15 11:26:27;;;;;;;28.10;14.57;;;5.00;99.90;;;;;;4997200;28;20053;-93
2022/01/15 11:32:16;;;;;;;28.85;14.10;;;5.10;99.90;;;;;;5014147;28;20373;-93
2022/01/15 11:34:59;;;;;;;27.30;14.38;;;5.10;99.90;;;;;;5006374;28;20478;-92
2022/01/15 11:37:25;;;;;;;30.90;14.48;;;5.30;99.90;;;;;;5014238;28;20061;-93
2022/01/15 11:39:55;;;;;;;31.85;14.25;;;5.10;99.90;;;;;;5009229;28;20045;-93
2022/01/15 11:42:41;;;;;;;31.38;16.58;;;5.30;99.90;;;;;;5034908;28;20045;-93
2022/01/15 11:45:07;;;;;;;31.67;16.38;;;5.10;99.90;;;;;;5016734;28;20061;-91
2022/01/15 11:47:34;;;;;;;37.88;17.15;;;5.40;99.90;;;;;;5032783;28;20045;-93
2022/01/15 11:50:20;;;;;;;43.17;18.60;;;5.10;99.90;;;;;;5016633;28;20465;-93
2022/01/15 11:52:45;;;;;;;39.22;17.98;;;5.10;99.90;;;;;;5015941;28;20049;-93
2022/01/15 11:55:12;;;;;;;36.92;17.45;;;5.00;99.90;;;;;;5015909;28;20564;-94
2022/01/15 11:57:47;;;;;;;36.45;17.42;;;5.20;99.90;;;;;;5032711;28;20066;-93
2022/01/15 12:03:45;;;;;;;37.70;16.55;;;5.10;99.90;;;;;;5032274;28;20088;-93
2022/01/15 12:06:11;;;;;;;32.97;16.08;;;5.20;99.90;;;;;;5032940;28;20056;-93
2022/01/15 12:08:37;;;;;;;39.67;17.30;;;5.10;99.90;;;;;;5032768;28;20053;-93
2022/01/15 12:11:04;;;;;;;39.83;18.35;;;5.00;99.90;;;;;;5015274;28;20056;-93
2022/01/15 12:13:42;;;;;;;34.05;17.13;;;5.10;99.90;;;;;;5016403;28;20068;-92
2022/01/15 12:16:21;;;;;;;38.92;17.75;;;5.00;99.90;;;;;;5015790;28;20144;-95
2022/01/15 12:18:49;;;;;;;43.33;18.83;;;5.10;99.90;;;;;;5032250;28;20050;-94
2022/01/15 12:21:44;;;;;;;42.45;20.40;;;4.90;99.90;;;;;;5016262;28;20056;-94
2022/01/15 12:24:39;;;;;;;37.22;18.17;;;4.90;99.90;;;;;;5016345;28;20470;-92
2022/01/15 12:27:10;;;;;;;44.85;18.02;;;4.90;99.90;;;;;;5015722;28;20057;-93
2022/01/15 12:29:38;;;;;;;40.28;19.13;;;4.90;99.90;;;;;;5032524;28;20053;-92
2022/01/15 12:32:03;;;;;;;35.92;16.48;;;4.80;99.90;;;;;;5032613;28;20399;-95
2022/01/15 12:34:30;;;;;;;37.70;17.20;;;5.00;99.90;;;;;;5016169;28;20079;-93
2022/01/15 12:36:55;;;;;;;35.17;17.38;;;5.00;99.90;;;;;;5016362;28;20057;-93
2022/01/15 12:39:32;;;;;;;39.08;18.55;;;5.00;99.90;;;;;;5031958;28;20054;-93
2022/01/15 12:41:58;;;;;;;35.83;18.38;;;4.90;99.90;;;;;;5017038;28;20056;-93
2022/01/15 12:44:24;;;;;;;42.20;20.23;;;5.00;99.90;;;;;;5019137;28;20049;-93
2022/01/15 12:46:59;;;;;;;40.42;19.85;;;5.10;99.90;;;;;;5019236;28;20493;-93
2022/01/15 12:49:57;;;;;;;36.40;17.98;;;5.00;99.90;;;;;;5018977;28;20056;-94
2022/01/15 12:52:26;;;;;;;42.90;19.38;;;5.00;99.90;;;;;;4962849;28;20062;-92
2022/01/15 12:54:54;;;;;;;44.83;19.88;;;5.00;99.90;;;;;;4963092;28;20137;-93
2022/01/15 12:57:39;;;;;;;41.25;18.83;;;5.10;99.90;;;;;;4995119;28;20050;-93
2022/01/15 13:00:23;;;;;;;40.33;18.63;;;5.00;99.90;;;;;;4978774;28;20062;-93
2022/01/15 13:02:54;;;;;;;42.50;18.50;;;5.00;99.90;;;;;;4962394;28;20108;-94
2022/01/15 13:05:20;;;;;;;41.58;19.52;;;5.00;99.90;;;;;;4962976;28;20061;-93
2022/01/15 13:08:00;;;;;;;50.50;20.65;;;5.10;99.90;;;;;;4962735;28;20415;-93
2022/01/15 13:10:57;;;;;;;48.67;20.85;;;4.90;99.90;;;;;;4962560;28;20089;-92
2022/01/15 13:13:32;;;;;;;46.75;20.35;;;4.90;99.90;;;;;;4962434;28;20054;-92
2022/01/15 13:16:12;;;;;;;45.22;21.13;;;5.20;99.90;;;;;;4978172;28;20054;-92
2022/01/15 13:18:40;;;;;;;47.38;21.90;;;5.20;99.90;;;;;;4962798;28;20062;-93
2022/01/15 13:21:18;;;;;;;55.47;22.55;;;5.00;99.90;;;;;;4978808;28;20051;-94
2022/01/15 13:23:47;;;;;;;49.00;21.65;;;4.90;99.90;;;;;;4962233;28;20050;-93
2022/01/15 13:26:19;;;;;;;50.67;20.88;;;4.90;99.90;;;;;;4978264;28;20528;-92
2022/01/15 13:28:45;;;;;;;43.50;20.15;;;4.90;99.90;;;;;;5007943;28;20406;-93
2022/01/15 13:31:31;;;;;;;41.55;20.00;;;5.20;99.90;;;;;;5018132;28;20053;-91
2022/01/15 13:34:07;;;;;;;43.63;19.15;;;5.00;99.90;;;;;;5034375;28;20057;-93
2022/01/15 13:36:32;;;;;;;41.70;20.08;;;4.90;99.90;;;;;;5017967;28;20521;-92
2022/01/15 13:38:58;;;;;;;45.45;20.77;;;4.80;99.90;;;;;;5017614;28;20045;-94
2022/01/15 13:41:30;;;;;;;47.55;20.92;;;4.80;99.90;;;;;;5018061;28;20068;-93